createdAt,value
2018-04-17T00:00:00.030Z,73.58
2018-04-17T00:02:01.749Z,73.19
2018-04-17T00:04:03.431Z,73.00
2018-04-17T00:06:05.158Z,73.29
2018-04-17T00:08:06.902Z,73.29
2018-04-17T00:10:08.777Z,73.48
2018-04-17T00:12:10.603Z,73.73
2018-04-17T00:14:12.301Z,73.83
2018-04-17T00:16:14.165Z,73.35
2018-04-17T00:18:16.318Z,73.63
2018-04-17T00:20:18.122Z,74.11
2018-04-17T00:22:19.881Z,73.54
2018-04-17T00:24:21.751Z,73.73
2018-04-17T00:26:23.671Z,73.44
2018-04-17T00:28:25.511Z,73.83
2018-04-17T00:30:27.436Z,73.73
2018-04-17T00:32:29.377Z,73.83
2018-04-17T00:34:31.027Z,73.73
2018-04-17T00:36:32.947Z,74.11
2018-04-17T00:38:34.756Z,73.60
2018-04-17T00:40:36.558Z,73.69
2018-04-17T00:42:38.421Z,74.17
2018-04-17T00:44:40.181Z,73.88
2018-04-17T00:46:41.997Z,74.17
2018-04-17T00:48:43.817Z,73.69
2018-04-17T00:50:45.483Z,73.88
2018-04-17T00:52:47.166Z,74.17
2018-04-17T00:54:48.975Z,74.08
2018-04-17T00:56:50.673Z,74.55
2018-04-17T00:58:52.420Z,74.65
2018-04-17T01:00:54.158Z,74.74
2018-04-17T01:02:55.874Z,74.08
2018-04-17T01:04:57.567Z,74.65
2018-04-17T01:06:59.460Z,74.65
2018-04-17T01:09:01.252Z,74.46
2018-04-17T01:11:02.757Z,74.27
2018-04-17T01:13:04.409Z,74.65
2018-04-17T01:15:05.993Z,74.08
2018-04-17T01:17:07.529Z,74.08
2018-04-17T01:19:09.327Z,74.65
2018-04-17T01:21:10.975Z,74.37
2018-04-17T01:23:12.526Z,74.80
2018-04-17T01:25:14.466Z,74.71
2018-04-17T01:27:16.166Z,74.99
2018-04-17T01:29:18.088Z,74.80
2018-04-17T01:31:19.857Z,74.61
2018-04-17T01:33:21.754Z,74.61
2018-04-17T01:35:23.293Z,74.13
2018-04-17T01:37:25.153Z,74.32
2018-04-17T01:39:27.086Z,74.32
2018-04-17T01:41:28.965Z,74.71
2018-04-17T01:43:30.755Z,74.32
2018-04-17T01:45:32.615Z,74.52
2018-04-17T01:47:34.361Z,74.99
2018-04-17T01:49:36.154Z,74.61
2018-04-17T01:51:37.984Z,74.71
2018-04-17T01:53:39.854Z,74.80
2018-04-17T01:55:41.638Z,74.61
2018-04-17T01:57:43.279Z,74.90
2018-04-17T01:59:45.107Z,74.71
2018-04-17T02:01:46.963Z,75.24
2018-04-17T02:03:48.939Z,74.80
2018-04-17T02:05:50.593Z,74.77
2018-04-17T02:07:52.494Z,75.05
2018-04-17T02:09:54.216Z,74.86
2018-04-17T02:11:56.040Z,75.43
2018-04-17T02:13:57.751Z,75.62
2018-04-17T02:15:59.542Z,75.91
2018-04-17T02:18:01.290Z,76.20
2018-04-17T02:20:03.124Z,76.29
2018-04-17T02:22:04.824Z,76.29
2018-04-17T02:24:06.565Z,76.20
2018-04-17T02:26:08.236Z,76.48
2018-04-17T02:28:09.974Z,76.29
2018-04-17T02:30:11.656Z,76.57
2018-04-17T02:32:13.567Z,76.67
2018-04-17T02:34:15.273Z,76.67
2018-04-17T02:36:17.151Z,76.77
2018-04-17T02:38:18.942Z,77.34
2018-04-17T02:40:20.764Z,76.86
2018-04-17T02:42:22.440Z,77.06
2018-04-17T02:44:24.263Z,77.53
2018-04-17T02:46:26.086Z,77.06
2018-04-17T02:48:28.034Z,77.34
2018-04-17T02:50:29.882Z,77.34
2018-04-17T02:52:31.667Z,77.72
2018-04-17T02:54:33.552Z,77.53
2018-04-17T02:56:35.401Z,77.62
2018-04-17T02:58:37.247Z,77.25
2018-04-17T03:00:39.105Z,77.53
2018-04-17T03:02:40.937Z,77.06
2018-04-17T03:04:42.681Z,76.39
2018-04-17T03:06:44.491Z,76.57
2018-04-17T03:08:46.394Z,76.57
2018-04-17T03:10:47.945Z,76.20
2018-04-17T03:12:49.817Z,76.48
2018-04-17T03:14:51.475Z,76.48
2018-04-17T03:16:53.233Z,76.39
2018-04-17T03:18:54.894Z,76.29
2018-04-17T03:20:56.817Z,75.91
2018-04-17T03:22:58.517Z,75.81
2018-04-17T03:25:00.247Z,76.29
2018-04-17T03:27:01.938Z,75.91
2018-04-17T03:29:03.704Z,76.01
2018-04-17T03:31:05.464Z,76.01
2018-04-17T03:33:07.261Z,76.20
2018-04-17T03:35:09.176Z,75.34
2018-04-17T03:37:10.822Z,75.53
2018-04-17T03:39:12.635Z,75.72
2018-04-17T03:41:14.488Z,75.53
2018-04-17T03:43:16.214Z,75.53
2018-04-17T03:45:17.914Z,75.43
2018-04-17T03:47:19.552Z,76.39
2018-04-17T03:49:21.386Z,76.39
2018-04-17T03:51:23.106Z,75.43
2018-04-17T03:53:24.929Z,75.72
2018-04-17T03:55:26.564Z,76.57
2018-04-17T03:57:28.243Z,76.86
2018-04-17T03:59:29.975Z,75.68
2018-04-17T04:01:31.827Z,76.20
2018-04-17T04:03:33.621Z,76.06
2018-04-17T04:05:35.277Z,76.16
2018-04-17T04:07:36.979Z,76.54
2018-04-17T04:09:38.844Z,76.16
2018-04-17T04:11:40.575Z,76.25
2018-04-17T04:13:42.226Z,76.82
2018-04-17T04:15:44.124Z,76.54
2018-04-17T04:17:45.962Z,76.73
2018-04-17T04:19:47.642Z,77.11
2018-04-17T04:21:49.492Z,77.01
2018-04-17T04:23:51.320Z,76.64
2018-04-17T04:25:54.988Z,76.44
2018-04-17T04:27:56.645Z,76.54
2018-04-17T04:29:58.346Z,76.54
2018-04-17T04:32:00.003Z,76.54
2018-04-17T04:34:01.688Z,76.82
2018-04-17T04:36:03.338Z,77.11
2018-04-17T04:38:46.315Z,76.82
2018-04-17T04:40:47.928Z,76.82
2018-04-17T04:42:49.370Z,77.40
2018-04-17T04:44:51.011Z,77.01
2018-04-17T04:46:52.916Z,76.92
2018-04-17T04:48:54.481Z,77.69
2018-04-17T04:50:56.218Z,77.49
2018-04-17T04:52:58.016Z,77.30
2018-04-17T04:54:59.796Z,77.78
2018-04-17T04:57:01.738Z,78.25
2018-04-17T04:59:03.678Z,77.69
2018-04-17T05:01:05.519Z,77.97
2018-04-17T05:03:07.398Z,77.83
2018-04-17T05:05:09.375Z,77.45
2018-04-17T05:07:11.262Z,77.97
2018-04-17T05:09:13.143Z,77.78
2018-04-17T05:11:14.811Z,77.59
2018-04-17T05:13:16.686Z,77.59
2018-04-17T05:15:18.610Z,77.69
2018-04-17T05:17:20.546Z,77.30
2018-04-17T05:19:22.276Z,77.69
2018-04-17T05:21:24.121Z,77.78
2018-04-17T05:23:25.865Z,77.59
2018-04-17T05:25:27.678Z,78.06
2018-04-17T05:27:29.471Z,78.16
2018-04-17T05:29:31.217Z,78.35
2018-04-17T05:31:32.922Z,78.92
2018-04-17T05:33:34.643Z,77.49
2018-04-17T05:35:36.476Z,77.78
2018-04-17T05:37:38.318Z,77.34
2018-04-17T05:39:40.137Z,77.53
2018-04-17T05:41:41.955Z,77.82
2018-04-17T05:43:43.742Z,77.53
2018-04-17T05:45:45.647Z,77.62
2018-04-17T05:47:47.309Z,78.20
2018-04-17T05:49:49.053Z,78.67
2018-04-17T05:51:50.721Z,78.58
2018-04-17T05:53:52.669Z,78.96
2018-04-17T05:55:54.493Z,79.63
2018-04-17T05:57:56.372Z,79.72
2018-04-17T05:59:58.176Z,79.44
2018-04-17T06:01:59.808Z,79.96
2018-04-17T06:04:01.903Z,79.77
2018-04-17T06:06:03.780Z,79.57
2018-04-17T06:08:05.734Z,78.62
2018-04-17T06:10:07.600Z,79.04
2018-04-17T06:12:09.536Z,78.94
2018-04-17T06:14:11.523Z,78.85
2018-04-17T06:16:13.245Z,78.56
2018-04-17T06:18:15.371Z,77.94
2018-04-17T06:20:17.379Z,77.21
2018-04-17T06:22:19.112Z,76.16
2018-04-17T06:24:21.088Z,76.39
2018-04-17T06:26:23.003Z,75.62
2018-04-17T06:28:24.964Z,74.80
2018-04-17T06:30:26.665Z,71.20
2018-04-17T06:32:28.301Z,68.30
2018-04-17T06:34:30.033Z,63.99
2018-04-17T06:36:31.750Z,60.69
2018-04-17T06:38:33.673Z,57.03
2018-04-17T06:40:35.401Z,54.00
2018-04-17T06:42:37.152Z,54.00
2018-04-17T06:44:39.284Z,53.14
2018-04-17T06:46:41.009Z,52.78
2018-04-17T06:48:42.993Z,51.92
2018-04-17T06:50:44.890Z,50.83
2018-04-17T06:52:46.937Z,50.83
2018-04-17T06:54:48.778Z,52.15
2018-04-17T06:56:50.780Z,52.83
2018-04-17T06:58:52.614Z,53.66
2018-04-17T07:00:54.535Z,54.14
2018-04-17T07:02:56.560Z,53.38
2018-04-17T07:04:58.630Z,52.70
2018-04-17T07:07:00.758Z,54.34
2018-04-17T07:09:02.588Z,54.63
2018-04-17T07:11:04.435Z,54.43
2018-04-17T07:13:06.226Z,54.43
2018-04-17T07:15:08.280Z,55.01
2018-04-17T07:17:10.342Z,54.63
2018-04-17T07:19:12.309Z,55.49
2018-04-17T07:21:14.140Z,55.66
2018-04-17T07:23:16.050Z,55.56
2018-04-17T07:25:18.020Z,56.14
2018-04-17T07:27:19.990Z,55.53
2018-04-17T07:29:21.995Z,55.44
2018-04-17T07:31:23.716Z,55.51
2018-04-17T07:33:25.551Z,57.81
2018-04-17T07:35:27.376Z,58.36
2018-04-17T07:37:29.264Z,59.22
2018-04-17T07:39:31.185Z,59.67
2018-04-17T07:41:33.119Z,61.40
2018-04-17T07:43:34.934Z,62.16
2018-04-17T07:45:36.789Z,61.49
2018-04-17T07:47:38.797Z,61.88
2018-04-17T07:49:40.647Z,62.39
2018-04-17T07:51:42.406Z,62.58
2018-04-17T07:53:44.174Z,62.65
2018-04-17T07:55:46.039Z,63.22
2018-04-17T07:57:48.109Z,64.40
2018-04-17T07:59:49.826Z,64.22
2018-04-17T08:01:51.649Z,64.56
2018-04-17T08:03:53.460Z,64.40
2018-04-17T08:05:55.278Z,64.22
2018-04-17T08:07:57.448Z,64.22
2018-04-17T08:09:59.365Z,64.98
2018-04-17T08:12:01.265Z,65.08
2018-04-17T08:14:03.127Z,64.31
2018-04-17T08:16:04.964Z,64.98
2018-04-17T08:18:06.856Z,65.65
2018-04-17T08:20:08.713Z,65.84
2018-04-17T08:22:10.506Z,64.25
2018-04-17T08:24:13.057Z,63.19
2018-04-17T08:26:14.955Z,63.28
2018-04-17T08:28:16.681Z,63.76
2018-04-17T08:30:18.663Z,65.14
2018-04-17T08:32:20.564Z,62.84
2018-04-17T08:34:22.275Z,60.91
2018-04-17T08:36:24.282Z,59.66
2018-04-17T08:38:26.262Z,59.95
2018-04-17T08:40:28.100Z,60.72
2018-04-17T08:42:29.889Z,59.60
2018-04-17T08:44:31.926Z,59.69
2018-04-17T08:46:33.854Z,59.31
2018-04-17T08:48:35.615Z,57.70
2018-04-17T08:50:37.426Z,56.36
2018-04-17T08:52:39.251Z,56.55
2018-04-17T08:54:40.955Z,55.30
2018-04-17T08:56:42.788Z,54.65
2018-04-17T08:58:44.598Z,53.19
2018-04-17T09:00:46.413Z,53.57
2018-04-17T09:02:48.299Z,52.12
2018-04-17T09:04:50.090Z,52.34
2018-04-17T09:06:51.907Z,53.02
2018-04-17T09:08:53.738Z,52.18
2018-04-17T09:10:55.628Z,52.08
2018-04-17T09:12:57.304Z,52.47
2018-04-17T09:14:59.242Z,51.89
2018-04-17T09:17:01.063Z,51.43
2018-04-17T09:19:02.822Z,51.92
2018-04-17T09:21:04.619Z,50.47
2018-04-17T09:23:06.492Z,50.37
2018-04-17T09:25:08.320Z,48.93
2018-04-17T09:28:33.859Z,46.81
2018-04-17T09:32:06.433Z,47.19
2018-04-17T09:34:51.927Z,50.47
2018-04-17T09:36:53.385Z,49.79
2018-04-17T09:40:11.458Z,47.87
2018-04-17T09:43:21.305Z,48.90
2018-04-17T09:45:23.393Z,46.69
2018-04-17T09:48:21.134Z,47.17
2018-04-17T09:50:41.617Z,47.75
2018-04-17T09:53:13.202Z,47.94
2018-04-17T09:55:55.795Z,47.19
2018-04-17T09:57:57.344Z,46.33
2018-04-17T09:59:59.029Z,46.81
2018-04-17T10:02:00.821Z,46.78
2018-04-17T10:04:02.826Z,46.69
2018-04-17T10:06:04.825Z,46.62
2018-04-17T10:08:06.643Z,46.78
2018-04-17T10:10:08.382Z,46.62
2018-04-17T10:12:10.240Z,46.81
2018-04-17T10:15:03.339Z,47.89
2018-04-17T10:17:54.491Z,48.28
2018-04-17T10:20:37.662Z,46.18
2018-04-17T10:23:26.608Z,45.99
2018-04-17T10:25:28.657Z,46.45
2018-04-17T10:27:30.529Z,46.83
2018-04-17T10:30:16.687Z,46.47
2018-04-17T10:32:18.043Z,45.29
2018-04-17T10:34:21.357Z,44.90
2018-04-17T10:36:23.574Z,45.87
2018-04-17T10:38:25.207Z,44.81
2018-04-17T10:40:26.963Z,46.88
2018-04-17T10:42:28.835Z,46.40
2018-04-17T10:44:30.603Z,43.02
2018-04-17T10:46:32.437Z,42.44
2018-04-17T10:48:34.125Z,42.54
2018-04-17T10:50:35.923Z,41.78
2018-04-17T10:52:37.717Z,41.88
2018-04-17T10:54:39.515Z,42.75
2018-04-17T10:56:41.703Z,44.27
2018-04-17T10:58:44.221Z,42.73
2018-04-17T11:00:46.090Z,42.44
2018-04-17T11:02:47.890Z,43.02
2018-04-17T11:05:30.338Z,42.44
2018-04-17T11:07:31.987Z,41.96
2018-04-17T11:09:33.588Z,43.31
2018-04-17T11:11:35.214Z,43.19
2018-04-17T11:13:39.796Z,43.21
2018-04-17T11:15:41.428Z,42.35
2018-04-17T11:17:43.159Z,42.80
2018-04-17T11:19:47.284Z,42.93
2018-04-17T11:21:48.852Z,42.63
2018-04-17T11:23:50.549Z,43.50
2018-04-17T11:25:52.231Z,42.71
2018-04-17T11:27:54.011Z,43.00
2018-04-17T11:29:55.725Z,42.52
2018-04-17T11:31:57.573Z,43.70
2018-04-17T11:33:59.660Z,42.54
2018-04-17T11:36:01.851Z,42.94
2018-04-17T11:38:03.589Z,41.78
2018-04-17T11:40:05.429Z,42.36
2018-04-17T11:42:07.164Z,41.30
2018-04-17T11:44:08.999Z,42.56
2018-04-17T11:46:11.344Z,42.27
2018-04-17T11:48:13.101Z,42.66
2018-04-17T11:50:15.498Z,41.60
2018-04-17T11:52:17.186Z,42.27
2018-04-17T11:54:19.184Z,40.24
2018-04-17T11:56:20.975Z,41.71
2018-04-17T11:58:22.636Z,41.30
2018-04-17T12:00:24.391Z,42.08
2018-04-17T12:02:26.283Z,41.78
2018-04-17T12:04:28.063Z,41.20
2018-04-17T12:06:29.905Z,40.92
2018-04-17T12:08:31.757Z,41.40
2018-04-17T12:10:33.466Z,41.02
2018-04-17T12:12:35.354Z,39.47
2018-04-17T12:14:37.154Z,40.26
2018-04-17T12:16:38.867Z,39.20
2018-04-17T12:18:40.624Z,40.07
2018-04-17T12:20:42.382Z,40.28
2018-04-17T12:22:44.131Z,39.32
2018-04-17T12:24:45.921Z,39.03
2018-04-17T12:26:47.810Z,38.74
2018-04-17T12:28:49.595Z,39.22
2018-04-17T12:30:51.458Z,39.41
2018-04-17T12:32:53.212Z,39.51
2018-04-17T12:34:55.003Z,40.36
2018-04-17T12:36:56.822Z,40.55
2018-04-17T12:38:58.674Z,40.07
2018-04-17T12:41:00.413Z,40.26
2018-04-17T12:43:02.115Z,42.10
2018-04-17T12:45:03.940Z,44.60
2018-04-17T12:47:05.801Z,41.93
2018-04-17T12:49:07.696Z,40.77
2018-04-17T12:51:09.626Z,41.03
2018-04-17T12:53:11.333Z,40.96
2018-04-17T12:55:13.145Z,39.03
2018-04-17T12:57:14.998Z,39.12
2018-04-17T12:59:16.790Z,39.20
2018-04-17T13:01:18.613Z,39.61
2018-04-17T13:03:20.394Z,40.19
2018-04-17T13:05:22.262Z,39.32
2018-04-17T13:07:24.091Z,40.09
2018-04-17T13:09:25.903Z,39.22
2018-04-17T13:11:27.693Z,39.32
2018-04-17T13:13:29.516Z,38.74
2018-04-17T13:15:31.324Z,39.41
2018-04-17T13:17:33.064Z,39.90
2018-04-17T13:19:34.879Z,39.70
2018-04-17T13:21:36.559Z,39.24
2018-04-17T13:23:38.364Z,41.39
2018-04-17T13:25:40.177Z,38.39
2018-04-17T13:27:41.970Z,40.61
2018-04-17T13:29:44.086Z,40.20
2018-04-17T13:31:46.001Z,39.43
2018-04-17T13:33:47.928Z,40.47
2018-04-17T13:35:49.784Z,40.01
2018-04-17T13:37:51.589Z,37.21
2018-04-17T13:39:53.349Z,38.46
2018-04-17T13:41:55.094Z,36.82
2018-04-17T13:43:56.951Z,37.21
2018-04-17T13:45:58.738Z,39.04
2018-04-17T13:48:00.540Z,37.40
2018-04-17T13:50:02.453Z,37.12
2018-04-17T13:52:04.185Z,37.30
2018-04-17T13:54:05.969Z,39.34
2018-04-17T13:56:07.738Z,37.71
2018-04-17T13:58:09.473Z,37.50
2018-04-17T14:00:11.398Z,38.37
2018-04-17T14:02:13.140Z,37.77
2018-04-17T14:04:14.887Z,37.38
2018-04-17T14:06:16.558Z,37.88
2018-04-17T14:08:18.219Z,38.56
2018-04-17T14:10:19.976Z,38.64
2018-04-17T14:12:21.687Z,39.32
2018-04-17T14:14:23.344Z,39.78
2018-04-17T14:16:24.982Z,39.22
2018-04-17T14:18:26.779Z,39.32
2018-04-17T14:20:28.552Z,41.15
2018-04-17T14:22:30.231Z,40.28
2018-04-17T14:24:31.866Z,39.90
2018-04-17T14:26:33.639Z,40.09
2018-04-17T14:28:35.454Z,39.22
2018-04-17T14:30:37.205Z,40.77
2018-04-17T14:32:39.036Z,41.15
2018-04-17T14:34:40.725Z,39.80
2018-04-17T14:36:42.560Z,39.90
2018-04-17T14:38:44.251Z,40.26
2018-04-17T14:40:46.055Z,41.33
2018-04-17T14:42:47.882Z,41.33
2018-04-17T14:44:49.685Z,41.33
2018-04-17T14:46:51.392Z,40.86
2018-04-17T14:48:53.181Z,41.35
2018-04-17T14:50:55.055Z,39.32
2018-04-17T14:52:56.830Z,40.09
2018-04-17T14:54:58.641Z,40.19
2018-04-17T14:57:00.488Z,39.61
2018-04-17T14:59:02.285Z,39.34
2018-04-17T15:01:04.025Z,39.70
2018-04-17T15:03:05.779Z,39.22
2018-04-17T15:05:07.588Z,39.70
2018-04-17T15:07:09.247Z,39.32
2018-04-17T15:09:11.083Z,39.41
2018-04-17T15:11:12.873Z,39.80
2018-04-17T15:13:14.871Z,38.81
2018-04-17T15:15:16.786Z,39.20
2018-04-17T15:17:18.570Z,39.49
2018-04-17T15:19:20.318Z,40.55
2018-04-17T15:21:22.064Z,40.45
2018-04-17T15:23:23.679Z,42.10
2018-04-17T15:25:25.387Z,41.13
2018-04-17T15:27:27.256Z,40.55
2018-04-17T15:29:29.026Z,40.45
2018-04-17T15:31:30.799Z,39.97
2018-04-17T15:33:32.624Z,40.17
2018-04-17T15:35:34.356Z,40.57
2018-04-17T15:37:36.110Z,41.35
2018-04-17T15:39:37.899Z,40.84
2018-04-17T15:41:39.709Z,40.65
2018-04-17T15:43:41.433Z,40.55
2018-04-17T15:45:43.141Z,41.81
2018-04-17T15:47:44.720Z,42.87
2018-04-17T15:49:46.331Z,42.58
2018-04-17T15:51:47.869Z,41.91
2018-04-17T15:53:49.652Z,42.58
2018-04-17T15:55:51.474Z,42.29
2018-04-17T15:57:53.188Z,42.85
2018-04-17T15:59:54.981Z,44.78
2018-04-17T16:01:56.834Z,45.26
2018-04-17T16:03:58.636Z,43.72
2018-04-17T16:06:00.684Z,43.52
2018-04-17T16:08:02.488Z,44.80
2018-04-17T16:10:04.219Z,42.77
2018-04-17T16:12:06.162Z,44.32
2018-04-17T16:14:08.055Z,45.50
2018-04-17T16:16:09.910Z,43.95
2018-04-17T16:18:11.816Z,44.70
2018-04-17T16:20:13.649Z,44.63
2018-04-17T16:22:15.465Z,44.60
2018-04-17T16:24:17.285Z,43.93
2018-04-17T16:26:19.081Z,44.39
2018-04-17T16:28:20.977Z,46.25
2018-04-17T16:30:22.835Z,44.90
2018-04-17T16:32:24.651Z,43.64
2018-04-17T16:34:26.514Z,44.03
2018-04-17T16:36:28.364Z,44.49
2018-04-17T16:38:30.026Z,46.23
2018-04-17T16:40:31.667Z,46.61
2018-04-17T16:42:33.449Z,47.48
2018-04-17T16:44:35.198Z,47.41
2018-04-17T16:46:36.956Z,46.54
2018-04-17T16:48:38.671Z,45.00
2018-04-17T16:50:40.509Z,46.25
2018-04-17T16:52:42.332Z,45.67
2018-04-17T16:54:43.947Z,46.06
2018-04-17T16:56:45.566Z,44.59
2018-04-17T16:58:47.309Z,46.54
2018-04-17T17:00:49.083Z,44.68
2018-04-17T17:02:50.926Z,46.42
2018-04-17T17:04:52.768Z,46.51
2018-04-17T17:06:54.531Z,46.42
2018-04-17T17:08:56.256Z,46.90
2018-04-17T17:10:57.945Z,46.64
2018-04-17T17:12:59.589Z,46.33
2018-04-17T17:15:01.420Z,46.90
2018-04-17T17:17:03.069Z,45.36
2018-04-17T17:19:04.829Z,45.07
2018-04-17T17:21:06.588Z,46.51
2018-04-17T17:23:08.372Z,47.19
2018-04-17T17:25:10.136Z,47.00
2018-04-17T17:27:11.952Z,46.81
2018-04-17T17:29:13.672Z,47.58
2018-04-17T17:31:15.465Z,47.77
2018-04-17T17:33:17.260Z,46.51
2018-04-17T17:35:19.022Z,46.81
2018-04-17T17:37:20.886Z,47.87
2018-04-17T17:39:22.681Z,49.12
2018-04-17T17:41:24.345Z,48.54
2018-04-17T17:43:26.140Z,49.02
2018-04-17T17:45:27.911Z,49.60
2018-04-17T17:47:29.720Z,49.32
2018-04-17T17:49:31.511Z,48.71
2018-04-17T17:51:33.360Z,48.61
2018-04-17T17:53:35.070Z,49.19
2018-04-17T17:55:36.827Z,49.48
2018-04-17T17:57:38.629Z,49.58
2018-04-17T17:59:40.463Z,49.58
2018-04-17T18:01:42.118Z,50.35
2018-04-17T18:03:43.781Z,50.74
2018-04-17T18:05:45.617Z,50.23
2018-04-17T18:07:47.287Z,50.62
2018-04-17T18:09:48.842Z,50.81
2018-04-17T18:11:50.600Z,49.27
2018-04-17T18:13:52.247Z,51.00
2018-04-17T18:15:54.080Z,51.20
2018-04-17T18:17:55.855Z,51.20
2018-04-17T18:19:57.537Z,51.39
2018-04-17T18:21:59.295Z,50.81
2018-04-17T18:24:01.056Z,51.17
2018-04-17T18:26:03.100Z,52.13
2018-04-17T18:28:04.967Z,52.42
2018-04-17T18:30:07.064Z,52.91
2018-04-17T18:32:08.901Z,52.42
2018-04-17T18:34:10.734Z,53.09
2018-04-17T18:36:12.553Z,53.27
2018-04-17T18:38:14.408Z,53.84
2018-04-17T18:40:16.280Z,53.94
2018-04-17T18:42:18.239Z,54.03
2018-04-17T18:44:20.189Z,53.45
2018-04-17T18:46:22.017Z,53.84
2018-04-17T18:48:23.816Z,53.07
2018-04-17T18:50:25.622Z,53.45
2018-04-17T18:52:27.534Z,54.52
2018-04-17T18:54:29.321Z,54.39
2018-04-17T18:56:31.195Z,54.39
2018-04-17T18:58:33.012Z,53.53
2018-04-17T19:00:34.894Z,54.30
2018-04-17T19:02:36.766Z,54.68
2018-04-17T19:04:38.611Z,54.10
2018-04-17T19:06:40.332Z,54.78
2018-04-17T19:08:42.217Z,54.49
2018-04-17T19:10:44.143Z,54.78
2018-04-17T19:12:45.929Z,54.58
2018-04-17T19:14:47.902Z,54.87
2018-04-17T19:16:49.740Z,54.97
2018-04-17T19:18:51.610Z,55.65
2018-04-17T19:20:53.428Z,56.00
2018-04-17T19:22:55.224Z,56.48
2018-04-17T19:24:56.914Z,56.67
2018-04-17T19:26:58.891Z,56.96
2018-04-17T19:29:00.844Z,56.38
2018-04-17T19:31:02.673Z,57.35
2018-04-17T19:33:04.450Z,57.54
2018-04-17T19:35:06.319Z,57.92
2018-04-17T19:37:08.498Z,58.47
2018-04-17T19:39:10.547Z,58.89
2018-04-17T19:41:12.487Z,58.67
2018-04-17T19:43:14.348Z,58.37
2018-04-17T19:45:16.181Z,58.95
2018-04-17T19:47:18.121Z,59.24
2018-04-17T19:49:20.392Z,59.44
2018-04-17T19:51:22.225Z,59.82
2018-04-17T19:53:24.328Z,60.30
2018-04-17T19:55:26.123Z,60.88
2018-04-17T19:57:27.943Z,61.26
2018-04-17T19:59:29.601Z,60.88
2018-04-17T20:01:31.549Z,60.88
2018-04-17T20:03:33.220Z,60.56
2018-04-17T20:05:35.187Z,60.27
2018-04-17T20:07:36.859Z,60.78
2018-04-17T20:09:38.926Z,60.27
2018-04-17T20:11:40.665Z,60.66
2018-04-17T20:13:42.448Z,60.08
2018-04-17T20:15:44.171Z,61.04
2018-04-17T20:17:45.994Z,61.52
2018-04-17T20:19:47.860Z,61.43
2018-04-17T20:21:49.760Z,61.81
2018-04-17T20:23:51.733Z,62.00
2018-04-17T20:25:53.396Z,62.16
2018-04-17T20:27:55.225Z,62.16
2018-04-17T20:29:57.024Z,62.74
2018-04-17T20:31:59.003Z,62.74
2018-04-17T20:34:00.797Z,63.02
2018-04-17T20:36:02.490Z,63.41
2018-04-17T20:38:04.403Z,63.51
2018-04-17T20:40:06.158Z,63.79
2018-04-17T20:42:07.933Z,64.37
2018-04-17T20:44:09.626Z,64.09
2018-04-17T20:46:11.506Z,63.89
2018-04-17T20:48:13.288Z,64.25
2018-04-17T20:50:15.107Z,64.25
2018-04-17T20:52:16.773Z,64.34
2018-04-17T20:54:18.678Z,64.34
2018-04-17T20:56:20.375Z,64.34
2018-04-17T20:58:22.180Z,64.34
2018-04-17T21:00:24.048Z,64.34
2018-04-17T21:02:25.734Z,64.92
2018-04-17T21:04:27.776Z,64.82
2018-04-17T21:06:29.678Z,64.82
2018-04-17T21:08:31.509Z,64.82
2018-04-17T21:10:33.271Z,65.20
2018-04-17T21:12:34.987Z,65.20
2018-04-17T21:14:36.717Z,65.20
2018-04-17T21:16:38.589Z,65.84
2018-04-17T21:18:40.364Z,65.75
2018-04-17T21:20:42.073Z,66.52
2018-04-17T21:22:43.918Z,66.33
2018-04-17T21:24:45.643Z,66.13
2018-04-17T21:26:47.612Z,66.71
2018-04-17T21:28:49.355Z,67.00
2018-04-17T21:30:50.996Z,67.00
2018-04-17T21:32:52.758Z,66.61
2018-04-17T21:34:54.444Z,66.71
2018-04-17T21:36:56.320Z,66.61
2018-04-17T21:38:58.184Z,66.33
2018-04-17T21:40:59.980Z,66.90
2018-04-17T21:43:01.900Z,66.52
2018-04-17T21:45:03.716Z,66.71
2018-04-17T21:47:05.607Z,66.90
2018-04-17T21:49:07.478Z,66.42
2018-04-17T21:51:09.369Z,66.86
2018-04-17T21:53:11.091Z,66.96
2018-04-17T21:55:12.849Z,67.44
2018-04-17T21:57:14.674Z,66.96
2018-04-17T21:59:16.439Z,67.25
2018-04-17T22:01:18.281Z,67.06
2018-04-17T22:03:20.042Z,67.35
2018-04-17T22:05:21.845Z,67.25
2018-04-17T22:07:23.735Z,66.86
2018-04-17T22:09:25.433Z,67.35
2018-04-17T22:11:27.197Z,67.44
2018-04-17T22:13:28.965Z,67.92
2018-04-17T22:15:30.733Z,67.41
2018-04-17T22:17:32.382Z,67.60
2018-04-17T22:19:34.202Z,67.69
2018-04-17T22:21:36.001Z,68.56
2018-04-17T22:23:37.853Z,68.08
2018-04-17T22:25:39.595Z,68.08
2018-04-17T22:27:41.407Z,68.66
2018-04-17T22:29:43.203Z,68.27
2018-04-17T22:31:44.902Z,68.75
2018-04-17T22:33:46.706Z,69.10
2018-04-17T22:35:48.409Z,68.66
2018-04-17T22:37:50.261Z,68.52
2018-04-17T22:39:52.088Z,69.20
2018-04-17T22:41:53.737Z,69.48
2018-04-17T22:43:55.581Z,69.39
2018-04-17T22:45:57.403Z,69.01
2018-04-17T22:47:59.203Z,68.91
2018-04-17T22:50:01.025Z,69.10
2018-04-17T22:52:02.722Z,69.20
2018-04-17T22:54:04.630Z,69.48
2018-04-17T22:56:06.342Z,69.39
2018-04-17T22:58:08.123Z,69.39
2018-04-17T23:00:09.849Z,69.10
2018-04-17T23:02:11.508Z,69.01
2018-04-17T23:04:13.336Z,69.29
2018-04-17T23:06:15.046Z,69.58
2018-04-17T23:08:16.775Z,69.68
2018-04-17T23:10:18.504Z,69.58
2018-04-17T23:12:20.469Z,69.39
2018-04-17T23:14:22.326Z,69.58
2018-04-17T23:16:24.176Z,69.68
2018-04-17T23:18:26.005Z,69.77
2018-04-17T23:20:27.795Z,70.35
2018-04-17T23:22:29.567Z,69.96
2018-04-17T23:24:31.394Z,70.25
2018-04-17T23:26:33.133Z,69.87
2018-04-17T23:28:34.956Z,70.54
2018-04-17T23:30:36.724Z,70.64
2018-04-17T23:32:38.359Z,70.15
2018-04-17T23:34:40.235Z,70.31
2018-04-17T23:36:41.963Z,70.70
2018-04-17T23:38:43.664Z,70.60
2018-04-17T23:40:45.440Z,70.70
2018-04-17T23:42:47.365Z,71.27
2018-04-17T23:44:48.973Z,70.89
2018-04-17T23:46:50.661Z,70.70
2018-04-17T23:48:52.441Z,70.60
2018-04-17T23:50:54.208Z,70.89
2018-04-17T23:52:56.181Z,70.70
2018-04-17T23:54:57.877Z,70.60
2018-04-17T23:56:59.787Z,71.17
2018-04-17T23:59:01.540Z,71.37
